SBOSBO MSY / KMSY
Speedbird OnlineSpeedbird Online MSY / KMSY

Louis Armstrong New Orleans International Airport
17:50 23.1°C

Location New Orleans, United States
Latitude: 29.99340057373047
Longitude: -90.25800323486328
Web Wikipedia
Altitude 1 Meter / 4 Feet
Distance 7,472 KM / 4,643 Miles
from London.
Time Zone UTC -6 hours (America/Chicago)
Codes IATA: MSY
ICAO: KMSY
Currency £1 equals USD 1.21
Runways
RunwayLength (m)Surface
022134Asphalt
061088Asphalt
113080Partial
202134Asphalt
241088Asphalt
293080Partial
Radio
TypeDescriptionFrequency
A/DNEW ORLEANS APP/DEP123.85
ATISATIS127.55
CLDCLNC DEL127.2
GNDGND121.9
TWRTWR119.5
UNICUNICOM122.95
Live ATC
METAR KMSY 081400Z 13011KT 6SM BR BKN007 BKN020 22/21 A3012 RMK AO2 T02170206
TAF KMSY 081348Z 0814/0918 13012KT P6SM SCT010 BKN020 OVC100 TEMPO 0814/0815 5SM BR OVC005 FM081500 17014G22KT P6SM VCSH BKN020 FM090000 18015G25KT P6SM SHRA VCTS OVC015CB FM090400 20018G30KT 5SM SHRA BR VCTS OVC008CB FM090900 23014G22KT 5SM SHRA BR OVC008 FM091400 32010KT 5SM BR VCSH BKN010
Weather As Of 08 Feb 2023 17:50
Description Overcast clouds
Wind 33 km/h from South-East (140°)
Cloud Cover 100%
Precipitation Rain: none, Snow: none
Sunrise 06:46
Sunset 17:43
Lounges The Club at MSY, Main Terminal
Rotations During the last 90 days there were
37 flights from LHR
43 flights to LHR



Support Speedbird Online

© 2017-2023 Speedbird Online